sensor_id;sensor_type;location;lat;lon;timestamp;P1;durP1;ratioP1;P2;durP2;ratioP2
8050;SDS011;4068;42.158;24.732;2024-03-23T00:53:28;29.57;;;15.17;;
8050;SDS011;4068;42.158;24.732;2024-03-23T00:55:54;31.57;;;15.27;;
8050;SDS011;4068;42.158;24.732;2024-03-23T00:58:19;33.27;;;16.70;;
8050;SDS011;4068;42.158;24.732;2024-03-23T01:00:45;35.60;;;15.67;;
8050;SDS011;4068;42.158;24.732;2024-03-23T01:03:10;34.17;;;15.30;;
8050;SDS011;4068;42.158;24.732;2024-03-23T01:05:36;31.93;;;15.17;;
8050;SDS011;4068;42.158;24.732;2024-03-23T01:08:01;26.67;;;14.37;;
8050;SDS011;4068;42.158;24.732;2024-03-23T01:10:27;30.03;;;14.30;;
8050;SDS011;4068;42.158;24.732;2024-03-23T01:12:52;30.17;;;14.23;;
8050;SDS011;4068;42.158;24.732;2024-03-23T01:15:18;35.53;;;13.83;;
8050;SDS011;4068;42.158;24.732;2024-03-23T01:17:43;34.17;;;13.80;;
8050;SDS011;4068;42.158;24.732;2024-03-23T01:20:09;26.70;;;14.23;;
8050;SDS011;4068;42.158;24.732;2024-03-23T01:22:35;29.87;;;14.13;;
8050;SDS011;4068;42.158;24.732;2024-03-23T01:25:01;28.53;;;14.27;;
8050;SDS011;4068;42.158;24.732;2024-03-23T01:27:26;31.90;;;14.73;;
8050;SDS011;4068;42.158;24.732;2024-03-23T01:29:52;31.40;;;14.57;;
8050;SDS011;4068;42.158;24.732;2024-03-23T01:32:18;30.53;;;14.07;;
8050;SDS011;4068;42.158;24.732;2024-03-23T01:34:44;30.43;;;15.23;;
8050;SDS011;4068;42.158;24.732;2024-03-23T01:37:09;35.53;;;15.00;;
8050;SDS011;4068;42.158;24.732;2024-03-23T01:39:35;31.83;;;14.13;;
8050;SDS011;4068;42.158;24.732;2024-03-23T01:42:00;26.37;;;13.50;;
8050;SDS011;4068;42.158;24.732;2024-03-23T01:44:26;37.33;;;17.40;;
8050;SDS011;4068;42.158;24.732;2024-03-23T01:46:51;49.20;;;21.63;;
8050;SDS011;4068;42.158;24.732;2024-03-23T01:49:17;38.33;;;18.37;;
8050;SDS011;4068;42.158;24.732;2024-03-23T01:51:42;33.43;;;17.10;;
8050;SDS011;4068;42.158;24.732;2024-03-23T01:54:09;38.07;;;17.63;;
8050;SDS011;4068;42.158;24.732;2024-03-23T01:56:35;35.00;;;17.40;;
8050;SDS011;4068;42.158;24.732;2024-03-23T01:59:04;31.83;;;15.80;;
8050;SDS011;4068;42.158;24.732;2024-03-23T02:01:30;27.77;;;15.57;;
8050;SDS011;4068;42.158;24.732;2024-03-23T02:03:57;29.87;;;15.50;;
8050;SDS011;4068;42.158;24.732;2024-03-23T02:06:24;33.77;;;16.70;;
8050;SDS011;4068;42.158;24.732;2024-03-23T02:08:50;33.50;;;15.90;;
8050;SDS011;4068;42.158;24.732;2024-03-23T02:11:16;29.60;;;15.33;;
8050;SDS011;4068;42.158;24.732;2024-03-23T02:13:41;29.03;;;15.23;;
8050;SDS011;4068;42.158;24.732;2024-03-23T02:16:06;29.30;;;14.83;;
8050;SDS011;4068;42.158;24.732;2024-03-23T02:18:32;26.20;;;14.60;;
8050;SDS011;4068;42.158;24.732;2024-03-23T02:20:58;29.50;;;15.37;;
8050;SDS011;4068;42.158;24.732;2024-03-23T02:23:24;27.00;;;13.27;;
8050;SDS011;4068;42.158;24.732;2024-03-23T02:25:50;30.60;;;14.43;;
8050;SDS011;4068;42.158;24.732;2024-03-23T02:28:15;22.77;;;13.23;;
8050;SDS011;4068;42.158;24.732;2024-03-23T02:30:42;28.87;;;13.27;;
8050;SDS011;4068;42.158;24.732;2024-03-23T02:33:07;29.17;;;14.23;;
8050;SDS011;4068;42.158;24.732;2024-03-23T02:35:33;32.20;;;14.63;;
8050;SDS011;4068;42.158;24.732;2024-03-23T02:37:58;25.97;;;13.00;;
8050;SDS011;4068;42.158;24.732;2024-03-23T02:40:24;23.83;;;12.67;;
8050;SDS011;4068;42.158;24.732;2024-03-23T02:42:50;25.17;;;13.83;;
8050;SDS011;4068;42.158;24.732;2024-03-23T02:45:16;21.40;;;12.83;;
8050;SDS011;4068;42.158;24.732;2024-03-23T02:47:42;26.60;;;13.13;;
8050;SDS011;4068;42.158;24.732;2024-03-23T02:50:08;22.37;;;12.43;;
8050;SDS011;4068;42.158;24.732;2024-03-23T02:52:34;25.83;;;13.43;;
8050;SDS011;4068;42.158;24.732;2024-03-23T02:54:59;22.53;;;12.80;;
8050;SDS011;4068;42.158;24.732;2024-03-23T02:57:27;27.07;;;13.07;;
8050;SDS011;4068;42.158;24.732;2024-03-23T02:59:52;22.53;;;13.07;;
8050;SDS011;4068;42.158;24.732;2024-03-23T03:02:18;22.73;;;12.17;;
8050;SDS011;4068;42.158;24.732;2024-03-23T03:04:43;27.87;;;12.80;;
8050;SDS011;4068;42.158;24.732;2024-03-23T03:07:09;25.93;;;12.27;;
8050;SDS011;4068;42.158;24.732;2024-03-23T03:09:34;23.47;;;12.57;;
8050;SDS011;4068;42.158;24.732;2024-03-23T03:12:01;22.30;;;12.37;;
8050;SDS011;4068;42.158;24.732;2024-03-23T03:14:27;23.63;;;13.07;;
8050;SDS011;4068;42.158;24.732;2024-03-23T03:16:53;22.57;;;13.07;;
8050;SDS011;4068;42.158;24.732;2024-03-23T03:19:19;19.90;;;12.30;;
8050;SDS011;4068;42.158;24.732;2024-03-23T03:21:44;31.97;;;13.37;;
8050;SDS011;4068;42.158;24.732;2024-03-23T03:24:10;26.20;;;13.37;;
8050;SDS011;4068;42.158;24.732;2024-03-23T03:26:35;26.93;;;13.57;;
8050;SDS011;4068;42.158;24.732;2024-03-23T03:29:01;25.63;;;13.03;;
8050;SDS011;4068;42.158;24.732;2024-03-23T03:31:27;25.53;;;13.33;;
8050;SDS011;4068;42.158;24.732;2024-03-23T03:33:53;21.43;;;12.10;;
8050;SDS011;4068;42.158;24.732;2024-03-23T03:36:18;23.37;;;12.13;;
8050;SDS011;4068;42.158;24.732;2024-03-23T03:38:44;20.87;;;12.13;;
8050;SDS011;4068;42.158;24.732;2024-03-23T03:41:10;22.57;;;12.87;;
8050;SDS011;4068;42.158;24.732;2024-03-23T03:43:35;20.03;;;11.23;;
8050;SDS011;4068;42.158;24.732;2024-03-23T03:46:01;20.57;;;11.03;;
8050;SDS011;4068;42.158;24.732;2024-03-23T03:48:27;24.13;;;13.43;;
8050;SDS011;4068;42.158;24.732;2024-03-23T03:50:53;20.30;;;12.50;;
8050;SDS011;4068;42.158;24.732;2024-03-23T03:53:19;17.90;;;10.90;;
8050;SDS011;4068;42.158;24.732;2024-03-23T03:55:45;17.20;;;10.37;;
8050;SDS011;4068;42.158;24.732;2024-03-23T03:58:10;18.97;;;10.70;;
8050;SDS011;4068;42.158;24.732;2024-03-23T04:00:36;18.07;;;10.43;;
8050;SDS011;4068;42.158;24.732;2024-03-23T04:03:01;18.07;;;10.50;;
8050;SDS011;4068;42.158;24.732;2024-03-23T04:05:28;15.10;;;8.83;;
8050;SDS011;4068;42.158;24.732;2024-03-23T04:07:54;20.30;;;9.40;;
8050;SDS011;4068;42.158;24.732;2024-03-23T04:10:20;15.07;;;8.80;;
8050;SDS011;4068;42.158;24.732;2024-03-23T04:12:46;16.27;;;9.57;;
8050;SDS011;4068;42.158;24.732;2024-03-23T04:15:12;17.63;;;9.53;;
8050;SDS011;4068;42.158;24.732;2024-03-23T04:17:38;18.23;;;9.50;;
8050;SDS011;4068;42.158;24.732;2024-03-23T04:20:04;16.30;;;8.77;;
8050;SDS011;4068;42.158;24.732;2024-03-23T04:22:34;19.53;;;9.40;;
8050;SDS011;4068;42.158;24.732;2024-03-23T04:25:00;16.17;;;8.47;;
8050;SDS011;4068;42.158;24.732;2024-03-23T04:27:31;14.57;;;8.33;;
8050;SDS011;4068;42.158;24.732;2024-03-23T04:30:00;15.50;;;9.37;;
8050;SDS011;4068;42.158;24.732;2024-03-23T04:32:30;15.00;;;8.23;;
8050;SDS011;4068;42.158;24.732;2024-03-23T04:34:56;19.37;;;9.57;;
8050;SDS011;4068;42.158;24.732;2024-03-23T04:37:22;18.60;;;9.97;;
8050;SDS011;4068;42.158;24.732;2024-03-23T04:39:47;26.33;;;9.60;;
8050;SDS011;4068;42.158;24.732;2024-03-23T04:42:16;15.07;;;8.60;;
8050;SDS011;4068;42.158;24.732;2024-03-23T04:44:42;18.53;;;9.13;;
8050;SDS011;4068;42.158;24.732;2024-03-23T04:47:07;13.33;;;8.80;;
8050;SDS011;4068;42.158;24.732;2024-03-23T04:49:33;15.20;;;8.50;;
8050;SDS011;4068;42.158;24.732;2024-03-23T04:52:01;13.50;;;8.10;;
8050;SDS011;4068;42.158;24.732;2024-03-23T04:54:28;22.70;;;9.87;;
8050;SDS011;4068;42.158;24.732;2024-03-23T04:56:53;16.17;;;9.30;;
8050;SDS011;4068;42.158;24.732;2024-03-23T04:59:19;12.57;;;8.50;;
8050;SDS011;4068;42.158;24.732;2024-03-23T05:01:45;20.57;;;9.00;;
8050;SDS011;4068;42.158;24.732;2024-03-23T05:04:10;13.83;;;9.20;;
8050;SDS011;4068;42.158;24.732;2024-03-23T05:06:36;21.27;;;9.90;;
8050;SDS011;4068;42.158;24.732;2024-03-23T05:09:01;15.00;;;9.10;;
8050;SDS011;4068;42.158;24.732;2024-03-23T05:11:37;18.73;;;10.43;;
8050;SDS011;4068;42.158;24.732;2024-03-23T05:14:03;17.87;;;10.90;;
8050;SDS011;4068;42.158;24.732;2024-03-23T05:16:29;15.23;;;9.77;;
8050;SDS011;4068;42.158;24.732;2024-03-23T05:18:54;15.43;;;9.70;;
8050;SDS011;4068;42.158;24.732;2024-03-23T05:21:20;21.33;;;10.47;;
8050;SDS011;4068;42.158;24.732;2024-03-23T05:23:45;19.63;;;10.90;;
8050;SDS011;4068;42.158;24.732;2024-03-23T05:26:11;14.70;;;8.83;;
8050;SDS011;4068;42.158;24.732;2024-03-23T05:28:36;16.50;;;8.80;;
8050;SDS011;4068;42.158;24.732;2024-03-23T05:31:02;14.93;;;9.23;;
8050;SDS011;4068;42.158;24.732;2024-03-23T05:33:28;15.23;;;9.00;;
8050;SDS011;4068;42.158;24.732;2024-03-23T05:35:57;14.27;;;8.77;;
8050;SDS011;4068;42.158;24.732;2024-03-23T05:38:24;22.07;;;10.00;;
8050;SDS011;4068;42.158;24.732;2024-03-23T05:40:59;13.53;;;8.90;;
8050;SDS011;4068;42.158;24.732;2024-03-23T05:43:25;13.83;;;8.63;;
8050;SDS011;4068;42.158;24.732;2024-03-23T05:48:24;18.77;;;10.10;;
8050;SDS011;4068;42.158;24.732;2024-03-23T05:50:50;18.20;;;9.53;;
8050;SDS011;4068;42.158;24.732;2024-03-23T05:53:16;18.37;;;9.37;;
8050;SDS011;4068;42.158;24.732;2024-03-23T05:55:43;18.17;;;10.97;;
8050;SDS011;4068;42.158;24.732;2024-03-23T05:58:08;19.57;;;9.63;;
8050;SDS011;4068;42.158;24.732;2024-03-23T06:00:35;14.33;;;8.73;;
8050;SDS011;4068;42.158;24.732;2024-03-23T06:03:00;16.50;;;8.67;;
8050;SDS011;4068;42.158;24.732;2024-03-23T06:05:26;19.50;;;9.33;;
8050;SDS011;4068;42.158;24.732;2024-03-23T06:07:52;19.73;;;9.00;;
8050;SDS011;4068;42.158;24.732;2024-03-23T06:10:17;13.93;;;9.60;;
8050;SDS011;4068;42.158;24.732;2024-03-23T06:12:43;16.80;;;9.33;;
8050;SDS011;4068;42.158;24.732;2024-03-23T06:15:10;14.73;;;9.27;;
8050;SDS011;4068;42.158;24.732;2024-03-23T06:17:36;16.87;;;9.30;;
8050;SDS011;4068;42.158;24.732;2024-03-23T06:20:02;19.97;;;9.60;;
8050;SDS011;4068;42.158;24.732;2024-03-23T06:22:28;18.00;;;9.97;;
8050;SDS011;4068;42.158;24.732;2024-03-23T06:24:53;14.00;;;8.93;;
8050;SDS011;4068;42.158;24.732;2024-03-23T06:27:19;16.07;;;9.17;;
8050;SDS011;4068;42.158;24.732;2024-03-23T06:29:44;16.70;;;10.07;;
8050;SDS011;4068;42.158;24.732;2024-03-23T06:32:10;19.80;;;10.37;;
8050;SDS011;4068;42.158;24.732;2024-03-23T06:34:35;18.17;;;10.80;;
8050;SDS011;4068;42.158;24.732;2024-03-23T06:37:01;19.63;;;9.87;;
8050;SDS011;4068;42.158;24.732;2024-03-23T06:39:28;23.27;;;12.20;;
8050;SDS011;4068;42.158;24.732;2024-03-23T06:41:54;24.10;;;11.43;;
8050;SDS011;4068;42.158;24.732;2024-03-23T06:44:20;19.97;;;11.03;;
8050;SDS011;4068;42.158;24.732;2024-03-23T06:46:46;17.10;;;9.47;;
8050;SDS011;4068;42.158;24.732;2024-03-23T06:49:11;16.80;;;10.53;;
8050;SDS011;4068;42.158;24.732;2024-03-23T06:51:37;25.50;;;11.47;;
8050;SDS011;4068;42.158;24.732;2024-03-23T06:54:03;17.30;;;10.23;;
8050;SDS011;4068;42.158;24.732;2024-03-23T06:56:29;24.00;;;11.23;;
8050;SDS011;4068;42.158;24.732;2024-03-23T06:58:55;16.23;;;10.50;;
8050;SDS011;4068;42.158;24.732;2024-03-23T07:01:21;19.27;;;10.43;;
8050;SDS011;4068;42.158;24.732;2024-03-23T07:03:47;18.83;;;10.80;;
8050;SDS011;4068;42.158;24.732;2024-03-23T07:06:12;20.03;;;9.33;;
8050;SDS011;4068;42.158;24.732;2024-03-23T07:08:38;19.83;;;10.18;;
8050;SDS011;4068;42.158;24.732;2024-03-23T07:11:03;18.63;;;9.03;;
8050;SDS011;4068;42.158;24.732;2024-03-23T07:13:30;19.60;;;9.57;;
8050;SDS011;4068;42.158;24.732;2024-03-23T07:15:55;14.73;;;9.68;;
8050;SDS011;4068;42.158;24.732;2024-03-23T07:18:22;16.45;;;9.07;;
8050;SDS011;4068;42.158;24.732;2024-03-23T07:20:57;17.85;;;10.32;;
8050;SDS011;4068;42.158;24.732;2024-03-23T07:23:23;15.13;;;8.93;;
8050;SDS011;4068;42.158;24.732;2024-03-23T07:25:56;15.23;;;9.35;;
8050;SDS011;4068;42.158;24.732;2024-03-23T07:28:29;15.48;;;8.55;;
8050;SDS011;4068;42.158;24.732;2024-03-23T07:31:05;13.77;;;8.40;;
8050;SDS011;4068;42.158;24.732;2024-03-23T07:33:31;27.92;;;9.45;;
8050;SDS011;4068;42.158;24.732;2024-03-23T07:35:57;13.40;;;8.43;;
8050;SDS011;4068;42.158;24.732;2024-03-23T07:38:25;17.20;;;9.05;;
8050;SDS011;4068;42.158;24.732;2024-03-23T07:40:51;15.05;;;9.20;;
8050;SDS011;4068;42.158;24.732;2024-03-23T07:43:21;16.73;;;8.52;;
8050;SDS011;4068;42.158;24.732;2024-03-23T07:45:53;13.85;;;8.90;;
8050;SDS011;4068;42.158;24.732;2024-03-23T07:48:20;17.05;;;9.32;;
8050;SDS011;4068;42.158;24.732;2024-03-23T07:50:56;19.98;;;9.55;;
8050;SDS011;4068;42.158;24.732;2024-03-23T07:53:29;15.90;;;9.23;;
8050;SDS011;4068;42.158;24.732;2024-03-23T07:55:56;16.90;;;10.00;;
8050;SDS011;4068;42.158;24.732;2024-03-23T07:58:24;15.70;;;9.85;;
8050;SDS011;4068;42.158;24.732;2024-03-23T08:00:49;17.77;;;9.82;;
8050;SDS011;4068;42.158;24.732;2024-03-23T08:03:15;19.23;;;9.48;;
8050;SDS011;4068;42.158;24.732;2024-03-23T08:05:41;21.35;;;10.27;;
8050;SDS011;4068;42.158;24.732;2024-03-23T08:08:06;20.10;;;9.27;;
8050;SDS011;4068;42.158;24.732;2024-03-23T08:10:32;15.70;;;8.57;;
8050;SDS011;4068;42.158;24.732;2024-03-23T08:12:57;20.45;;;9.30;;
8050;SDS011;4068;42.158;24.732;2024-03-23T08:15:23;17.45;;;8.35;;
8050;SDS011;4068;42.158;24.732;2024-03-23T08:17:49;16.10;;;8.13;;
8050;SDS011;4068;42.158;24.732;2024-03-23T08:20:15;13.25;;;7.22;;
8050;SDS011;4068;42.158;24.732;2024-03-23T08:22:40;17.40;;;8.00;;
8050;SDS011;4068;42.158;24.732;2024-03-23T08:25:06;12.68;;;6.95;;
8050;SDS011;4068;42.158;24.732;2024-03-23T08:27:31;9.50;;;6.95;;
8050;SDS011;4068;42.158;24.732;2024-03-23T08:29:58;14.93;;;7.57;;
8050;SDS011;4068;42.158;24.732;2024-03-23T08:32:23;12.90;;;8.02;;
8050;SDS011;4068;42.158;24.732;2024-03-23T08:34:49;15.65;;;8.45;;
8050;SDS011;4068;42.158;24.732;2024-03-23T08:37:14;10.88;;;7.40;;
8050;SDS011;4068;42.158;24.732;2024-03-23T08:39:40;14.52;;;8.15;;
8050;SDS011;4068;42.158;24.732;2024-03-23T08:42:08;18.50;;;8.57;;
8050;SDS011;4068;42.158;24.732;2024-03-23T08:44:34;10.13;;;6.55;;
8050;SDS011;4068;42.158;24.732;2024-03-23T08:46:59;12.68;;;7.35;;
8050;SDS011;4068;42.158;24.732;2024-03-23T08:49:26;12.75;;;7.00;;
8050;SDS011;4068;42.158;24.732;2024-03-23T08:51:51;12.85;;;7.20;;
8050;SDS011;4068;42.158;24.732;2024-03-23T08:54:17;11.68;;;7.80;;
8050;SDS011;4068;42.158;24.732;2024-03-23T08:56:45;15.65;;;7.40;;
8050;SDS011;4068;42.158;24.732;2024-03-23T08:59:10;10.70;;;6.88;;
8050;SDS011;4068;42.158;24.732;2024-03-23T09:01:36;16.17;;;7.88;;
8050;SDS011;4068;42.158;24.732;2024-03-23T09:04:01;12.95;;;7.13;;
8050;SDS011;4068;42.158;24.732;2024-03-23T09:06:26;13.07;;;7.40;;
8050;SDS011;4068;42.158;24.732;2024-03-23T09:08:52;15.55;;;6.93;;
8050;SDS011;4068;42.158;24.732;2024-03-23T09:11:17;8.48;;;6.15;;
8050;SDS011;4068;42.158;24.732;2024-03-23T09:13:43;11.20;;;7.20;;
8050;SDS011;4068;42.158;24.732;2024-03-23T09:16:08;9.57;;;6.15;;
8050;SDS011;4068;42.158;24.732;2024-03-23T09:18:35;17.00;;;7.03;;
8050;SDS011;4068;42.158;24.732;2024-03-23T09:21:01;13.30;;;7.53;;
8050;SDS011;4068;42.158;24.732;2024-03-23T09:23:28;10.05;;;6.70;;
8050;SDS011;4068;42.158;24.732;2024-03-23T09:25:53;12.27;;;7.68;;
8050;SDS011;4068;42.158;24.732;2024-03-23T09:28:19;10.38;;;7.00;;
8050;SDS011;4068;42.158;24.732;2024-03-23T09:30:44;9.88;;;6.38;;
8050;SDS011;4068;42.158;24.732;2024-03-23T09:33:10;9.20;;;6.47;;
8050;SDS011;4068;42.158;24.732;2024-03-23T09:35:39;12.60;;;6.82;;
8050;SDS011;4068;42.158;24.732;2024-03-23T09:38:06;13.50;;;7.03;;
8050;SDS011;4068;42.158;24.732;2024-03-23T09:40:35;12.32;;;6.57;;
8050;SDS011;4068;42.158;24.732;2024-03-23T09:43:08;10.40;;;6.70;;
8050;SDS011;4068;42.158;24.732;2024-03-23T09:45:36;12.13;;;6.90;;
8050;SDS011;4068;42.158;24.732;2024-03-23T09:48:04;10.30;;;6.95;;
8050;SDS011;4068;42.158;24.732;2024-03-23T09:50:30;13.07;;;6.22;;
8050;SDS011;4068;42.158;24.732;2024-03-23T09:52:56;11.43;;;7.40;;
8050;SDS011;4068;42.158;24.732;2024-03-23T09:55:21;10.82;;;7.00;;
8050;SDS011;4068;42.158;24.732;2024-03-23T09:57:47;11.40;;;6.97;;
8050;SDS011;4068;42.158;24.732;2024-03-23T10:00:13;15.93;;;7.50;;
8050;SDS011;4068;42.158;24.732;2024-03-23T10:02:38;12.73;;;7.00;;
8050;SDS011;4068;42.158;24.732;2024-03-23T10:05:04;14.15;;;7.13;;
8050;SDS011;4068;42.158;24.732;2024-03-23T10:07:44;14.40;;;7.05;;
8050;SDS011;4068;42.158;24.732;2024-03-23T10:10:13;15.50;;;8.00;;
8050;SDS011;4068;42.158;24.732;2024-03-23T10:12:47;20.25;;;7.13;;
8050;SDS011;4068;42.158;24.732;2024-03-23T10:15:20;11.38;;;6.85;;
8050;SDS011;4068;42.158;24.732;2024-03-23T10:17:47;13.48;;;7.15;;
8050;SDS011;4068;42.158;24.732;2024-03-23T10:20:13;8.70;;;6.28;;
8050;SDS011;4068;42.158;24.732;2024-03-23T10:22:45;13.55;;;6.93;;
8050;SDS011;4068;42.158;24.732;2024-03-23T10:25:11;10.80;;;6.93;;
8050;SDS011;4068;42.158;24.732;2024-03-23T10:27:37;7.88;;;6.53;;
8050;SDS011;4068;42.158;24.732;2024-03-23T10:30:12;11.60;;;6.20;;
8050;SDS011;4068;42.158;24.732;2024-03-23T10:32:39;9.00;;;6.22;;
8050;SDS011;4068;42.158;24.732;2024-03-23T10:35:17;10.13;;;5.95;;
8050;SDS011;4068;42.158;24.732;2024-03-23T10:37:44;9.50;;;6.45;;
8050;SDS011;4068;42.158;24.732;2024-03-23T10:40:12;9.57;;;5.68;;
8050;SDS011;4068;42.158;24.732;2024-03-23T10:42:38;11.52;;;6.20;;
8050;SDS011;4068;42.158;24.732;2024-03-23T10:45:05;9.85;;;6.60;;
8050;SDS011;4068;42.158;24.732;2024-03-23T10:47:35;7.65;;;6.25;;
8050;SDS011;4068;42.158;24.732;2024-03-23T10:50:01;8.52;;;5.85;;
8050;SDS011;4068;42.158;24.732;2024-03-23T10:52:28;10.57;;;6.45;;
8050;SDS011;4068;42.158;24.732;2024-03-23T10:54:54;9.10;;;6.15;;
8050;SDS011;4068;42.158;24.732;2024-03-23T10:57:23;25.75;;;7.32;;
8050;SDS011;4068;42.158;24.732;2024-03-23T10:59:56;13.25;;;6.15;;
8050;SDS011;4068;42.158;24.732;2024-03-23T11:02:22;8.85;;;6.35;;
8050;SDS011;4068;42.158;24.732;2024-03-23T11:04:47;10.27;;;6.20;;
8050;SDS011;4068;42.158;24.732;2024-03-23T11:07:29;14.45;;;7.45;;
8050;SDS011;4068;42.158;24.732;2024-03-23T11:09:56;10.63;;;5.97;;
8050;SDS011;4068;42.158;24.732;2024-03-23T11:14:54;9.52;;;6.28;;
8050;SDS011;4068;42.158;24.732;2024-03-23T11:17:24;7.57;;;5.63;;
8050;SDS011;4068;42.158;24.732;2024-03-23T11:19:54;12.80;;;6.13;;
8050;SDS011;4068;42.158;24.732;2024-03-23T11:27:52;10.45;;;5.93;;
8050;SDS011;4068;42.158;24.732;2024-03-23T11:30:36;6.13;;;5.07;;
8050;SDS011;4068;42.158;24.732;2024-03-23T11:33:05;8.85;;;5.65;;
8050;SDS011;4068;42.158;24.732;2024-03-23T11:35:32;8.48;;;5.78;;
8050;SDS011;4068;42.158;24.732;2024-03-23T11:40:30;11.02;;;5.75;;
8050;SDS011;4068;42.158;24.732;2024-03-23T11:42:59;8.80;;;5.47;;
8050;SDS011;4068;42.158;24.732;2024-03-23T11:45:31;7.70;;;5.75;;
8050;SDS011;4068;42.158;24.732;2024-03-23T11:48:07;10.55;;;5.70;;
8050;SDS011;4068;42.158;24.732;2024-03-23T11:50:33;7.47;;;5.20;;
8050;SDS011;4068;42.158;24.732;2024-03-23T11:53:07;10.02;;;5.82;;
8050;SDS011;4068;42.158;24.732;2024-03-23T11:55:56;10.82;;;7.03;;
8050;SDS011;4068;42.158;24.732;2024-03-23T11:58:24;10.82;;;5.45;;
8050;SDS011;4068;42.158;24.732;2024-03-23T12:01:00;7.13;;;4.88;;
8050;SDS011;4068;42.158;24.732;2024-03-23T12:03:28;7.15;;;5.15;;
8050;SDS011;4068;42.158;24.732;2024-03-23T12:05:54;10.73;;;5.75;;
8050;SDS011;4068;42.158;24.732;2024-03-23T12:08:39;7.63;;;5.60;;
8050;SDS011;4068;42.158;24.732;2024-03-23T12:13:34;9.60;;;4.90;;
8050;SDS011;4068;42.158;24.732;2024-03-23T12:18:42;8.60;;;4.95;;
8050;SDS011;4068;42.158;24.732;2024-03-23T12:21:08;7.88;;;4.78;;
8050;SDS011;4068;42.158;24.732;2024-03-23T12:23:35;7.75;;;4.70;;
8050;SDS011;4068;42.158;24.732;2024-03-23T12:26:01;12.90;;;4.88;;
8050;SDS011;4068;42.158;24.732;2024-03-23T12:28:27;8.18;;;5.00;;
8050;SDS011;4068;42.158;24.732;2024-03-23T12:30:53;7.15;;;5.03;;
8050;SDS011;4068;42.158;24.732;2024-03-23T12:33:19;5.35;;;4.53;;
8050;SDS011;4068;42.158;24.732;2024-03-23T12:35:47;8.02;;;4.60;;
8050;SDS011;4068;42.158;24.732;2024-03-23T12:38:13;10.13;;;4.97;;
8050;SDS011;4068;42.158;24.732;2024-03-23T12:40:39;11.73;;;4.60;;
8050;SDS011;4068;42.158;24.732;2024-03-23T12:43:04;6.38;;;4.60;;
8050;SDS011;4068;42.158;24.732;2024-03-23T12:45:30;7.28;;;4.47;;
8050;SDS011;4068;42.158;24.732;2024-03-23T12:47:55;12.27;;;4.95;;
8050;SDS011;4068;42.158;24.732;2024-03-23T12:50:21;5.80;;;3.78;;
8050;SDS011;4068;42.158;24.732;2024-03-23T12:52:47;7.38;;;4.50;;
8050;SDS011;4068;42.158;24.732;2024-03-23T12:55:12;7.32;;;4.40;;
8050;SDS011;4068;42.158;24.732;2024-03-23T12:57:38;6.50;;;3.90;;
8050;SDS011;4068;42.158;24.732;2024-03-23T13:00:04;7.65;;;4.20;;
8050;SDS011;4068;42.158;24.732;2024-03-23T13:02:31;8.02;;;4.30;;
8050;SDS011;4068;42.158;24.732;2024-03-23T13:04:56;5.57;;;4.15;;
8050;SDS011;4068;42.158;24.732;2024-03-23T13:07:23;5.90;;;4.18;;
8050;SDS011;4068;42.158;24.732;2024-03-23T13:09:51;6.43;;;4.18;;
8050;SDS011;4068;42.158;24.732;2024-03-23T13:12:21;4.50;;;3.65;;
8050;SDS011;4068;42.158;24.732;2024-03-23T13:14:46;4.80;;;3.70;;
8050;SDS011;4068;42.158;24.732;2024-03-23T13:17:12;4.63;;;3.65;;
8050;SDS011;4068;42.158;24.732;2024-03-23T13:19:38;5.85;;;4.18;;
8050;SDS011;4068;42.158;24.732;2024-03-23T13:22:04;6.80;;;4.07;;
8050;SDS011;4068;42.158;24.732;2024-03-23T13:24:30;7.82;;;4.50;;
8050;SDS011;4068;42.158;24.732;2024-03-23T13:26:56;6.60;;;4.47;;
8050;SDS011;4068;42.158;24.732;2024-03-23T13:29:22;6.28;;;4.22;;
8050;SDS011;4068;42.158;24.732;2024-03-23T13:31:49;8.35;;;4.72;;
8050;SDS011;4068;42.158;24.732;2024-03-23T13:34:15;7.00;;;4.28;;
8050;SDS011;4068;42.158;24.732;2024-03-23T13:36:41;6.70;;;4.57;;
8050;SDS011;4068;42.158;24.732;2024-03-23T13:39:08;4.90;;;4.05;;
8050;SDS011;4068;42.158;24.732;2024-03-23T13:41:39;6.30;;;5.13;;
8050;SDS011;4068;42.158;24.732;2024-03-23T13:44:09;7.50;;;4.72;;
8050;SDS011;4068;42.158;24.732;2024-03-23T13:46:36;11.77;;;6.10;;
8050;SDS011;4068;42.158;24.732;2024-03-23T13:49:02;10.52;;;6.65;;
8050;SDS011;4068;42.158;24.732;2024-03-23T13:51:28;11.60;;;7.90;;
8050;SDS011;4068;42.158;24.732;2024-03-23T13:53:54;14.23;;;8.80;;
8050;SDS011;4068;42.158;24.732;2024-03-23T13:56:20;13.68;;;9.45;;
8050;SDS011;4068;42.158;24.732;2024-03-23T13:58:46;13.68;;;9.50;;
8050;SDS011;4068;42.158;24.732;2024-03-23T14:01:15;12.90;;;9.20;;
8050;SDS011;4068;42.158;24.732;2024-03-23T14:03:41;13.85;;;8.57;;
8050;SDS011;4068;42.158;24.732;2024-03-23T14:06:07;11.73;;;8.20;;
8050;SDS011;4068;42.158;24.732;2024-03-23T14:08:34;12.50;;;7.68;;
8050;SDS011;4068;42.158;24.732;2024-03-23T14:11:03;11.30;;;6.95;;
8050;SDS011;4068;42.158;24.732;2024-03-23T14:13:29;7.40;;;5.10;;
8050;SDS011;4068;42.158;24.732;2024-03-23T14:15:55;7.07;;;4.53;;
8050;SDS011;4068;42.158;24.732;2024-03-23T14:18:21;6.28;;;4.57;;
8050;SDS011;4068;42.158;24.732;2024-03-23T14:20:49;9.05;;;4.95;;
8050;SDS011;4068;42.158;24.732;2024-03-23T14:23:16;5.25;;;4.20;;
8050;SDS011;4068;42.158;24.732;2024-03-23T14:25:42;6.07;;;4.13;;
8050;SDS011;4068;42.158;24.732;2024-03-23T14:28:07;5.63;;;4.10;;
8050;SDS011;4068;42.158;24.732;2024-03-23T14:30:39;7.30;;;4.25;;
8050;SDS011;4068;42.158;24.732;2024-03-23T14:33:05;5.57;;;4.03;;
8050;SDS011;4068;42.158;24.732;2024-03-23T14:35:30;5.47;;;3.97;;
8050;SDS011;4068;42.158;24.732;2024-03-23T14:37:58;7.65;;;4.28;;
8050;SDS011;4068;42.158;24.732;2024-03-23T14:40:23;7.15;;;4.50;;
8050;SDS011;4068;42.158;24.732;2024-03-23T14:42:52;4.55;;;4.13;;
8050;SDS011;4068;42.158;24.732;2024-03-23T14:45:18;6.53;;;4.25;;
8050;SDS011;4068;42.158;24.732;2024-03-23T14:47:44;6.78;;;4.40;;
8050;SDS011;4068;42.158;24.732;2024-03-23T14:50:10;4.18;;;3.70;;
8050;SDS011;4068;42.158;24.732;2024-03-23T14:52:39;5.45;;;3.92;;
8050;SDS011;4068;42.158;24.732;2024-03-23T14:55:04;7.70;;;4.05;;
8050;SDS011;4068;42.158;24.732;2024-03-23T14:57:30;4.38;;;3.28;;
8050;SDS011;4068;42.158;24.732;2024-03-23T14:59:56;4.95;;;3.50;;
8050;SDS011;4068;42.158;24.732;2024-03-23T15:02:21;5.00;;;3.75;;
8050;SDS011;4068;42.158;24.732;2024-03-23T15:04:46;6.22;;;3.63;;
8050;SDS011;4068;42.158;24.732;2024-03-23T15:07:12;4.95;;;3.55;;
8050;SDS011;4068;42.158;24.732;2024-03-23T15:09:37;5.68;;;3.67;;
8050;SDS011;4068;42.158;24.732;2024-03-23T15:12:03;4.88;;;3.67;;
8050;SDS011;4068;42.158;24.732;2024-03-23T15:14:29;2.97;;;2.72;;
8050;SDS011;4068;42.158;24.732;2024-03-23T15:16:54;3.85;;;3.30;;
8050;SDS011;4068;42.158;24.732;2024-03-23T15:19:20;5.32;;;3.42;;
8050;SDS011;4068;42.158;24.732;2024-03-23T15:21:45;4.30;;;3.47;;
8050;SDS011;4068;42.158;24.732;2024-03-23T15:24:11;3.97;;;3.58;;
8050;SDS011;4068;42.158;24.732;2024-03-23T15:26:37;5.05;;;3.70;;
8050;SDS011;4068;42.158;24.732;2024-03-23T15:29:03;3.50;;;3.08;;
8050;SDS011;4068;42.158;24.732;2024-03-23T15:31:35;4.88;;;3.78;;
8050;SDS011;4068;42.158;24.732;2024-03-23T15:34:00;4.18;;;3.33;;
8050;SDS011;4068;42.158;24.732;2024-03-23T15:36:26;8.02;;;3.58;;
8050;SDS011;4068;42.158;24.732;2024-03-23T15:38:51;8.15;;;3.75;;
8050;SDS011;4068;42.158;24.732;2024-03-23T15:41:19;5.45;;;3.55;;
8050;SDS011;4068;42.158;24.732;2024-03-23T15:43:45;6.07;;;3.50;;
8050;SDS011;4068;42.158;24.732;2024-03-23T15:46:10;6.60;;;3.15;;
8050;SDS011;4068;42.158;24.732;2024-03-23T15:48:36;5.88;;;3.60;;
8050;SDS011;4068;42.158;24.732;2024-03-23T15:51:03;6.43;;;3.58;;
8050;SDS011;4068;42.158;24.732;2024-03-23T15:53:31;6.25;;;3.47;;
8050;SDS011;4068;42.158;24.732;2024-03-23T15:55:57;5.60;;;3.25;;